Home > Products > Valid Products > TAF

000
FTUS44 KMOB 290531
TAFPNS
TAF
KPNS 290531Z 2906/3006 00000KT P6SM SKC
     FM290900 12003KT 4SM BR BKN010
     FM291400 13006KT P6SM BKN025
     FM291700 16010KT P6SM SCT035=



000
FTUS44 KMOB 290531
TAFMOB
TAF
KMOB 290531Z 2906/3006 00000KT P6SM SKC
     FM290900 11003KT 4SM BR BKN009
     FM291400 14007KT P6SM BKN025
     FM291700 17011KT P6SM SCT035=



000
FTUS44 KMOB 282330
TAFMOB
TAF
KMOB 282330Z 2900/2924 20006KT P6SM SCT200
     FM290600 12002KT 6SM BR BKN007
     FM290900 13002KT 4SM BR OVC004
     FM291400 14006KT P6SM BKN020
     FM291700 17011KT P6SM SCT035=



000
FTUS44 KMOB 282330
TAFPNS
TAF
KPNS 282330Z 2900/2924 17003KT P6SM SCT100 BKN250
     FM290600 15003KT 6SM BR BKN009
     FM290900 12003KT 4SM BR OVC004
     FM291400 13006KT P6SM BKN020
     FM291700 16010KT P6SM SCT035=



000
FTUS44 KMOB 282146 AAA
TAFPNS
TAF AMD
KPNS 282146Z 2822/2918 32004KT P6SM FEW015 BKN130
     FM290200 18004KT P6SM SCT250
     FM290800 19002KT P6SM OVC007
     FM291000 00000KT 4SM BR OVC004=



000
FTUS44 KMOB 281727
TAFMOB
TAF
KMOB 281727Z 2818/2918 33005KT P6SM VCSH FEW040 SCT080 BKN120
      TEMPO 2819/2822 VRB25KT 4SM TSRA BKN025CB
     FM290000 18004KT P6SM SCT250
     FM290600 19002KT P6SM OVC007
     FM290900 00000KT 4SM BR OVC004=



000
FTUS44 KMOB 281727
TAFPNS
TAF
KPNS 281727Z 2818/2918 22022G29KT P6SM -RA VCTS BKN009CB BKN100
      TEMPO 2818/2822 VRB25KT 4SM TSRA SCT015 BKN025CB
     FM290200 18004KT P6SM SCT250
     FM290800 19002KT P6SM OVC007
     FM291000 00000KT 4SM BR OVC004=



000
FTUS44 KMOB 281520 AAB
TAFPNS
TAF AMD
KPNS 281520Z 2815/2912 18009KT P6SM VCTS BKN009 BKN013CB OVC022
      TEMPO 2816/2818 VRB35KT 1SM +TSRA BKN009 OVC015CB
     FM281800 20013KT P6SM VCTS SCT015 BKN025CB
      TEMPO 2818/2821 P6SM TSRA SCT015 BKN025CB
     FM282100 19013KT P6SM VCTS SCT025CB BKN040
      TEMPO 2821/2824 P6SM -TSRA BKN025CB
     FM290200 18004KT P6SM SCT250
     FM290800 19002KT P6SM OVC007
     FM291000 00000KT 4SM BR OVC004=



000
FTUS44 KMOB 281520 AAB
TAFPNS
TAF AMD
KPNS 281520Z 2815/2912 18009KT P6SM VCTS BKN009 BKN013CB OVC022
      TEMPO 2816/2818 VRB35KT 1SM +TSRA BKN009 OVC015CB
     FM281800 20013KT P6SM VCTS SCT015 BKN025CB
      TEMPO 2818/2821 P6SM TSRA SCT015 BKN025CB
     FM282100 19013KT P6SM VCTS SCT025CB BKN040
      TEMPO 2821/2824 P6SM -TSRA BKN025CB
     FM290200 18004KT P6SM SCT250
     FM290800 19002KT P6SM OVC007
     FM291000 00000KT 4SM BR OVC004=



000
FTUS44 KMOB 281518 CCA
TAFMOB
TAF COR
KMOB 281518Z 2815/2912 20008KT P6SM -RA VCTS FEW013 SCT027CB BKN110
      TEMPO 2815/2818 VRB35KT 2SM TSRA BKN007 OVC015CB
     FM281800 19013KT P6SM VCTS SCT025CB BKN040
      TEMPO 2819/2822 P6SM -TSRA BKN025CB
     FM290000 18004KT P6SM SCT250
     FM290600 19002KT P6SM OVC007
     FM290900 00000KT 4SM BR OVC004=



000
FTUS44 KMOB 281517 AAB
TAFMOB
TAF AMD
KMOB 281517Z 2815/2912 20008KT P6SM -RA VCTS FEW013 SCT027CB BKN110
      TEMPO 2815/2818 2SM TSRA BKN007 OVC015CB
     FM281800 19013KT P6SM VCTS SCT025CB BKN040
      TEMPO 2819/2822 P6SM -TSRA BKN025CB
     FM290000 18004KT P6SM SCT250
     FM290600 19002KT P6SM OVC007
     FM290900 00000KT 4SM BR OVC004=



000
FTUS44 KMOB 281311 AAA
TAFPNS
TAF AMD
KPNS 281311Z 2813/2912 00000KT P6SM OVC016
     FM281400 19011KT P6SM VCTS BKN010 OVC015CB
      TEMPO 2816/2818 1SM +TSRA BKN009 OVC015CB
     FM281800 20013KT P6SM VCTS SCT015 BKN025CB
      TEMPO 2818/2821 P6SM TSRA SCT015 BKN025CB
     FM282100 19013KT P6SM VCTS SCT025CB BKN040
      TEMPO 2821/2824 P6SM -TSRA BKN025CB
     FM290200 18004KT P6SM SCT250
     FM290800 19002KT P6SM OVC007
     FM291000 00000KT 4SM BR OVC004=



000
FTUS44 KMOB 281309 AAA
TAFMOB
TAF AMD
KMOB 281309Z 2813/2912 19003KT P6SM VCTS BKN010 OVC015CB
      TEMPO 2815/2818 2SM TSRA BKN007 OVC015CB
     FM281800 19013KT P6SM VCTS SCT025CB BKN040
      TEMPO 2819/2822 P6SM -TSRA BKN025CB
     FM290000 18004KT P6SM SCT250
     FM290600 19002KT P6SM OVC007
     FM290900 00000KT 4SM BR OVC004=



000
FTUS44 KMOB 281144
TAFMOB
TAF
KMOB 281144Z 2812/2912 16008KT P6SM VCTS SCT015 BKN040CB OVC070
      TEMPO 2813/2815 1SM +TSRA BKN009 OVC015CB
     FM281500 20009KT P6SM VCTS SCT015 BKN025CB
      TEMPO 2815/2819 P6SM TSRA SCT015 BKN025CB
     FM281900 19013KT P6SM VCTS SCT025CB BKN040
      TEMPO 2819/2822 P6SM -TSRA BKN025CB
     FM290000 18004KT P6SM SCT250
     FM290600 19002KT P6SM OVC007
     FM290900 00000KT 4SM BR OVC004=



000
FTUS44 KMOB 281144
TAFPNS
TAF
KPNS 281144Z 2812/2912 17006KT P6SM OVC090
     FM281500 19011KT P6SM VCTS SCT015 BKN040CB OVC070
      TEMPO 2816/2818 1SM +TSRA BKN009 OVC015CB
     FM281800 20013KT P6SM VCTS SCT015 BKN025CB
      TEMPO 2818/2821 P6SM TSRA SCT015 BKN025CB
     FM282100 19013KT P6SM VCTS SCT025CB BKN040
      TEMPO 2821/2824 P6SM -TSRA BKN025CB
     FM290200 18004KT P6SM SCT250
     FM290800 19002KT P6SM OVC007
     FM291000 00000KT 4SM BR OVC004=



000
FTUS44 KMOB 280942 AAA
TAFPNS
TAF AMD
KPNS 280942Z 2810/2906 00000KT P6SM SCT015 BKN070 OVC200
      TEMPO 2814/2817 3SM TSRA BKN007 OVC015CB
     FM281700 21009KT P6SM VCTS BKN025CB
     FM281800 20012KT P6SM VCTS BKN050CB BKN250=



000
FTUS44 KMOB 280940 AAA
TAFMOB
TAF AMD
KMOB 280940Z 2810/2906 15005KT P6SM SCT015 BKN070 OVC200
      TEMPO 2812/2814 1SM +TSRA BKN007 OVC015CB
     FM281400 20009KT P6SM VCTS BKN025CB
     FM281800 20009KT P6SM VCTS OVC050CB=



000
FTUS44 KMOB 280940 AAA
TAFMOB
TAF AMD
KMOB 280940Z 2810/2906 15005KT P6SM SCT015 BKN070 OVC200
      TEMPO 2812/2814 1SM +TSRA BKN007 OVC015CB
     FM281400 20009KT P6SM VCTS BKN025CB
     FM281800 20009KT P6SM VCTS OVC050CB=



000
FTUS44 KMOB 280538
TAFPNS
TAF
KPNS 280538Z 2806/2906 22006KT P6SM FEW070 BKN090
     FM280900 18006KT 5SM BR OVC007
      TEMPO 2809/2813 4SM -TSRA BKN007CB
     FM281500 21009KT P6SM VCTS BKN025CB
     FM281800 20012KT P6SM VCTS BKN050CB BKN250 PROB30 2818/2824 5SM
      -TSRA BKN025CB=



000
FTUS44 KMOB 280538
TAFMOB
TAF
KMOB 280538Z 2806/2906 00000KT P6SM FEW070 OVC090
     FM280900 19005KT 5SM BR OVC015
      TEMPO 2809/2813 4SM -SHRA BKN007
     FM281400 20009KT P6SM VCTS BKN025CB
     FM281800 20009KT P6SM VCTS OVC050CB PROB30 2818/2824 5SM -TSRA
      BKN025CB=



000
FTUS44 KMOB 272348
TAFMOB
TAF
KMOB 272348Z 2800/2824 14011KT P6SM SCT020 BKN090 OVC110
     FM280100 17008KT P6SM BKN015
     FM280900 19005KT 5SM BR OVC015
      TEMPO 2809/2813 4SM -SHRA BKN007
     FM281400 20009KT P6SM VCTS BKN025CB=



000
FTUS44 KMOB 272348
TAFMOB
TAF
KMOB 272348Z 2800/2824 14011KT P6SM SCT020 BKN090 OVC110
     FM280100 17008KT P6SM BKN015
     FM280900 19005KT 5SM BR OVC015
      TEMPO 2809/2813 4SM -SHRA BKN007
     FM281400 20009KT P6SM VCTS BKN025CB=



000
FTUS44 KMOB 272348
TAFPNS
TAF
KPNS 272348Z 2800/2824 21009KT P6SM BKN008
     FM280100 17008KT P6SM BKN015
     FM280900 18006KT 5SM BR OVC007
      TEMPO 2809/2813 4SM -TSRA BKN007CB
     FM281500 21009KT P6SM VCTS BKN025CB=



000
FTUS44 KMOB 272348
TAFPNS
TAF
KPNS 272348Z 2800/2824 21009KT P6SM BKN008
     FM280100 17008KT P6SM BKN015
     FM280900 18006KT 5SM BR OVC007
      TEMPO 2809/2813 4SM -TSRA BKN007CB
     FM281500 21009KT P6SM VCTS BKN025CB=



000
FTUS44 KMOB 272128 AAA
TAFMOB
TAF AMD
KMOB 272128Z 2721/2818 17012KT 5SM -TSRA SCT015CB BKN040
      TEMPO 2721/2724 VRB20G30KT 1SM +TSRA BKN025CB OVC040
     FM280100 17008KT P6SM BKN015 PROB30 2806/2812 4SM TSRA
      BKN008CB=



000
FTUS44 KMOB 271744
TAFMOB
TAF
KMOB 271744Z 2718/2818 17012KT P6SM VCTS SCT030CB BKN250
      TEMPO 2720/2724 VRB20G30KT 3SM TSRA BKN025CB OVC040
     FM280100 17008KT P6SM BKN015 PROB30 2806/2812 4SM TSRA
      BKN008CB=



000
FTUS44 KMOB 271744
TAFPNS
TAF
KPNS 271744Z 2718/2818 13008KT P6SM FEW008 BKN015 OVC025
      TEMPO 2721/2801 VRB15G25KT 3SM TSRA BKN025CB OVC040
     FM280100 17008KT P6SM BKN015 PROB30 2806/2812 4SM -TSRA
      BKN008CB=



000
FTUS44 KMOB 271744
TAFPNS
TAF
KPNS 271744Z 2718/2818 13008KT P6SM FEW008 BKN015 OVC025
      TEMPO 2721/2801 VRB15G25KT 3SM TSRA BKN025CB OVC040
     FM280100 17008KT P6SM BKN015 PROB30 2806/2812 4SM -TSRA
      BKN008CB=



000
FTUS44 KMOB 271631 AAB
TAFMOB
TAF AMD
KMOB 271631Z 2717/2812 17012KT P6SM VCSH SCT025 BKN250
     FM271800 17012KT P6SM VCSH BKN025 BKN250
      TEMPO 2720/2724 4SM -TSRA BKN025CB OVC040
     FM280000 17008KT P6SM BKN025 PROB30 2806/2812 4SM -TSRA
      BKN015CB=



000
FTUS44 KMOB 271321 AAA
TAFMOB
TAF AMD
KMOB 271321Z 2713/2812 14007KT P6SM SCT015 BKN250
      TEMPO 2713/2715 P6SM BKN015 BKN250
     FM271500 16010KT P6SM SCT025 BKN250
     FM271800 17012KT P6SM VCSH BKN025 BKN250
      TEMPO 2720/2724 4SM -TSRA BKN025CB OVC040
     FM280000 17008KT P6SM BKN025 PROB30 2806/2812 4SM -TSRA
      BKN015CB=



000
FTUS44 KMOB 271144 CCA
TAFPNS
TAF COR
KPNS 271144Z 2712/2812 13008KT P6SM FEW008 BKN015 OVC025
      TEMPO 2712/2715 P6SM SCT015 BKN250
     FM271500 16010KT P6SM SCT025 BKN250
     FM271800 17012KT P6SM VCSH BKN025 BKN250
      TEMPO 2720/2724 4SM -TSRA BKN025CB OVC040
     FM280000 17008KT P6SM BKN025 PROB30 2806/2812 4SM -TSRA
      BKN015CB=



000
FTUS44 KMOB 271143
TAFMOB
TAF
KMOB 271143Z 2712/2812 15007KT P6SM FEW009 BKN250
      TEMPO 2712/2715 P6SM SCT015 BKN250
     FM271500 16010KT P6SM SCT025 BKN250
     FM271800 17012KT P6SM VCSH BKN025 BKN250
      TEMPO 2720/2724 4SM -TSRA BKN025CB OVC040
     FM280000 17008KT P6SM BKN025 PROB30 2806/2812 4SM -TSRA
      BKN015CB=



000
FTUS44 KMOB 271143
TAFPNS
TAF
KPNS 271143Z 2712/2812 13007KT P6SM BKN020 BKN250
      TEMPO 2712/2715 P6SM SCT020 BKN250
     FM271500 16010KT P6SM SCT025 BKN250
     FM271800 17012KT P6SM VCSH BKN025 BKN250
      TEMPO 2720/2724 4SM -TSRA BKN025CB OVC040
     FM280000 17008KT P6SM BKN025 PROB30 2806/2812 4SM -TSRA
      BKN015CB=



000
FTUS44 KMOB 270930 AAB
TAFMOB
TAF AMD
KMOB 270930Z 2710/2806 15005KT P6SM SKC
     FM271200 13005KT 2SM BR BKN004
     FM271500 15010KT P6SM VCSH BKN025
     FM271800 18010KT P6SM VCTS BKN015CB BKN030=



000
FTUS44 KMOB 270710 AAA
TAFPNS
TAF AMD
KPNS 270710Z 2707/2806 16006KT P6SM FEW007
     FM271200 15009KT P6SM BKN025
     FM271500 17014KT P6SM VCSH BKN025 BKN050
     FM272000 18014KT P6SM VCTS BKN015CB BKN030=



000
FTUS44 KMOB 270710 AAA
TAFPNS
TAF AMD
KPNS 270710Z 2707/2806 16006KT P6SM FEW007
     FM271200 15009KT P6SM BKN025
     FM271500 17014KT P6SM VCSH BKN025 BKN050
     FM272000 18014KT P6SM VCTS BKN015CB BKN030=



000
FTUS44 KMOB 270530
TAFPNS
TAF
KPNS 270530Z 2706/2806 17009KT P6SM BKN005 OVC009
     FM271200 15009KT P6SM BKN025
     FM271500 17014KT P6SM VCSH BKN025 BKN050
     FM272000 18014KT P6SM VCTS BKN015CB BKN030=



000
FTUS44 KMOB 270530
TAFMOB
TAF
KMOB 270530Z 2706/2806 12005KT P6SM SCT012
     FM270900 13005KT 5SM BR BKN007
     FM271200 13005KT 2SM BR BKN004
     FM271500 15010KT P6SM VCSH BKN025
     FM271800 18010KT P6SM VCTS BKN015CB BKN030=



000
FTUS44 KMOB 270530
TAFPNS
TAF
KPNS 270530Z 2706/2806 17009KT P6SM BKN005 OVC009
     FM271200 15009KT P6SM BKN025
     FM271500 17014KT P6SM VCSH BKN025 BKN050
     FM272000 18014KT P6SM VCTS BKN015CB BKN030=



000
FTUS44 KMOB 270530
TAFMOB
TAF
KMOB 270530Z 2706/2806 12005KT P6SM SCT012
     FM270900 13005KT 5SM BR BKN007
     FM271200 13005KT 2SM BR BKN004
     FM271500 15010KT P6SM VCSH BKN025
     FM271800 18010KT P6SM VCTS BKN015CB BKN030=



000
FTUS44 KMOB 262343
TAFMOB
TAF
KMOB 262343Z 2700/2724 18011KT P6SM SKC
     FM270600 15003KT 4SM BR BKN007
     FM271200 13005KT 2SM BR BKN004
     FM271500 15010KT P6SM VCSH BKN025=



000
FTUS44 KMOB 262343
TAFPNS
TAF
KPNS 262343Z 2700/2724 14010KT P6SM SKC
     FM270600 15003KT 4SM BR BKN007
     FM271500 15009KT P6SM BKN025
     FM271800 17014KT P6SM VCSH SCT025 BKN050=



000
FTUS44 KMOB 261728
TAFMOB
TAF
KMOB 261728Z 2618/2718 11010KT P6SM SCT035 BKN045
     FM270900 15003KT 4SM BR BKN004
     FM271500 15010KT P6SM BKN025=



000
FTUS44 KMOB 261728
TAFPNS
TAF
KPNS 261728Z 2618/2718 13013KT P6SM FEW016
     FM270900 15003KT 4SM BR BKN004
     FM271500 15009KT 5SM BR BKN025=



000
FTUS44 KMOB 261439 AAC
TAFMOB
TAF AMD
KMOB 261439Z 2615/2712 14008KT P6SM BKN015 BKN150
     FM261600 16009KT P6SM SCT030
     FM270900 15003KT 4SM BR BKN007=



000
FTUS44 KMOB 261216 AAB
TAFMOB
TAF AMD
KMOB 261216Z 2612/2712 11005KT 1/2SM FG VV002
     FM261230 12006KT P6SM SKC
     FM261500 16009KT P6SM SKC
     FM270900 15003KT 4SM BR BKN007=



000
FTUS44 KMOB 261203 AAA
TAFMOB
TAF AMD
KMOB 261203Z 2612/2712 10003KT 1/4SM FG VV002
     FM261230 12006KT P6SM SKC
     FM261500 16009KT P6SM SKC
     FM270900 15003KT 4SM BR BKN007=



000
FTUS44 KMOB 261203 AAA
TAFMOB
TAF AMD
KMOB 261203Z 2612/2712 10003KT 1/4SM FG VV002
     FM261230 12006KT P6SM SKC
     FM261500 16009KT P6SM SKC
     FM270900 15003KT 4SM BR BKN007=



000
FTUS44 KMOB 261139
TAFMOB
TAF
KMOB 261139Z 2612/2712 09005KT P6SM SKC
     FM261500 16009KT P6SM SKC
     FM270900 15003KT 4SM BR BKN007=



000
FTUS44 KMOB 261139
TAFPNS
TAF
KPNS 261139Z 2612/2712 12005KT P6SM SKC
     FM261600 17010KT P6SM SKC
     FM270900 15003KT 4SM BR BKN007=



000
FTUS44 KMOB 261139
TAFMOB
TAF
KMOB 261139Z 2612/2712 09005KT P6SM SKC
     FM261500 16009KT P6SM SKC
     FM270900 15003KT 4SM BR BKN007=



000
FTUS44 KMOB 261139
TAFPNS
TAF
KPNS 261139Z 2612/2712 12005KT P6SM SKC
     FM261600 17010KT P6SM SKC
     FM270900 15003KT 4SM BR BKN007=



000
FTUS44 KMOB 261105 AAC
TAFPNS
TAF AMD
KPNS 261105Z 2611/2706 00000KT P6SM SCT009
     FM261400 17010KT P6SM SCT025
     FM270200 15006KT P6SM FEW250=



000
FTUS44 KMOB 261104 AAB
TAFMOB
TAF AMD
KMOB 261104Z 2611/2706 00000KT P6SM FEW250
     FM261400 16010KT P6SM SCT025
     FM270100 16008KT P6SM FEW250=



000
FTUS44 KMOB 260815 AAC
TAFMOB
TAF AMD
KMOB 260815Z 2608/2706 17003KT P6SM SKC
     FM261100 13002KT 4SM BR BKN005
     FM261400 16010KT P6SM SCT025
     FM270100 16008KT P6SM FEW250=



000
FTUS44 KMOB 260801 AAB
TAFPNS
TAF AMD
KPNS 260801Z 2608/2706 15004KT P6SM SCT009
     FM261000 15003KT 4SM BR BKN006
     FM261400 17010KT P6SM SCT025
     FM270200 15006KT P6SM FEW250=



    US Dept of Commerce
    National Oceanic and Atmospheric Administration
    National Weather Service
    1325 East West Highway
    Silver Spring, MD 20910
    Page Author: NWS Internet Services Team
Disclaimer
Information Quality
Credits
Glossary
Privacy Policy
Freedom of Information Act (FOIA)
About Us
Career Opportunities